Natures Way Challenger — WDF7294 — position and weather

sailwx.info

Track history (hours):
 
Tides and Currents Weather Stations Pressure Air Temp Water Temp Dewpoint Dewpoint Depression Visibility Wind Speed Wind Dir Waves Ship Positions

Natures Way Challenger

Owner: Natures Way Marine, LLC, Theodore, AL. More information available from US FCC via Universal Licensing System and Coast Guard Vessel Documentation Center.

Last reported at 2014-Nov-20 10:28 UTC. Time now 2014-Nov-22 16:53 UTC.
Position N 29°32' W 094°54'.

Length 14 m.

Type: Towing. MMSI: 367483050.

Date/timePositionNaut miles runAvg speedWind from/ knotsBaromVisibWave heightAir tempDewpointWater temp
2014-Nov-20 10:28N 29°32' W 094°54'4 4.4
2014-Nov-20 09:33N 29°36' W 094°56'5 4.5
2014-Nov-20 08:30N 29°40' W 094°59'4 3.7
2014-Nov-20 07:29N 29°43' W 095°01'7 2.9
2014-Nov-20 05:13N 29°44' W 095°09'2 0.6
2014-Nov-20 02:22N 29°45' W 095°10'0 0.1
2014-Nov-19 23:15N 29°45' W 095°11'2 2.2
2014-Nov-19 22:31N 29°44' W 095°09'3 1.7
2014-Nov-19 20:32N 29°46' W 095°06'2 1.3
2014-Nov-19 19:21N 29°47' W 095°05'3 1.3
2014-Nov-19 17:06N 29°45' W 095°06'3 5.5
2014-Nov-19 16:30N 29°45' W 095°10'0 0.1
2014-Nov-19 15:32N 29°45' W 095°10'4 4.4
2014-Nov-19 14:33N 29°46' W 095°05'5 4.6
2014-Nov-19 13:33N 29°43' W 095°01'5 4.9
2014-Nov-19 12:33N 29°39' W 094°58'6 5.6
2014-Nov-19 11:33N 29°34' W 094°55'6 5.5
2014-Nov-19 10:32N 29°29' W 094°52'  
2014-Nov-13 02:33N 29°39' W 091°22'4 4.0
2014-Nov-13 01:33N 29°39' W 091°18'4 4.4
2014-Nov-13 00:33N 29°41' W 091°13'3 2.5
2014-Nov-12 23:33N 29°41' W 091°10'2 2.4
2014-Nov-12 22:33N 29°40' W 091°08'2 2.4
2014-Nov-12 21:33N 29°38' W 091°06'7 3.3
2014-Nov-12 19:28N 29°36' W 090°58'21 2.4
2014-Nov-12 10:31N 29°34' W 090°34'1 0.9
2014-Nov-12 09:29N 29°34' W 090°33'3 3.0
2014-Nov-12 08:29N 29°34' W 090°29'35 1.8
2014-Nov-11 13:03N 29°55' W 089°57'0 0.0
2014-Nov-11 11:18N 29°55' W 089°57'0 0.0
2014-Nov-11 10:26N 29°55' W 089°57'0 0.0
2014-Nov-11 09:20N 29°55' W 089°57'  
Track history (hours):
 
Tides and Currents Weather Stations Pressure Air Temp Water Temp Dewpoint Dewpoint Depression Visibility Wind Speed Wind Dir Waves Ship Positions

Natures Way Challenger

Owner: Natures Way Marine, LLC, Theodore, AL. More information available from US FCC via Universal Licensing System and Coast Guard Vessel Documentation Center.

Last reported at 2014-Nov-20 10:28 UTC. Time now 2014-Nov-22 16:53 UTC.
Position N 29°32' W 094°54'.

Length 14 m.

Type: Towing. MMSI: 367483050.

Date/timePositionNaut miles runAvg speedWind from/ knotsBaromVisibWave heightAir tempDewpointWater temp
2014-Nov-20 10:28N 29°32' W 094°54'4 4.4
2014-Nov-20 09:33N 29°36' W 094°56'5 4.5
2014-Nov-20 08:30N 29°40' W 094°59'4 3.7
2014-Nov-20 07:29N 29°43' W 095°01'7 2.9
2014-Nov-20 05:13N 29°44' W 095°09'2 0.6
2014-Nov-20 02:22N 29°45' W 095°10'0 0.1
2014-Nov-19 23:15N 29°45' W 095°11'2 2.2
2014-Nov-19 22:31N 29°44' W 095°09'3 1.7
2014-Nov-19 20:32N 29°46' W 095°06'2 1.3
2014-Nov-19 19:21N 29°47' W 095°05'3 1.3
2014-Nov-19 17:06N 29°45' W 095°06'3 5.5
2014-Nov-19 16:30N 29°45' W 095°10'0 0.1
2014-Nov-19 15:32N 29°45' W 095°10'4 4.4
2014-Nov-19 14:33N 29°46' W 095°05'5 4.6
2014-Nov-19 13:33N 29°43' W 095°01'5 4.9
2014-Nov-19 12:33N 29°39' W 094°58'6 5.6
2014-Nov-19 11:33N 29°34' W 094°55'6 5.5
2014-Nov-19 10:32N 29°29' W 094°52'  
2014-Nov-13 02:33N 29°39' W 091°22'4 4.0
2014-Nov-13 01:33N 29°39' W 091°18'4 4.4
2014-Nov-13 00:33N 29°41' W 091°13'3 2.5
2014-Nov-12 23:33N 29°41' W 091°10'2 2.4
2014-Nov-12 22:33N 29°40' W 091°08'2 2.4
2014-Nov-12 21:33N 29°38' W 091°06'7 3.3
2014-Nov-12 19:28N 29°36' W 090°58'21 2.4
2014-Nov-12 10:31N 29°34' W 090°34'1 0.9
2014-Nov-12 09:29N 29°34' W 090°33'3 3.0
2014-Nov-12 08:29N 29°34' W 090°29'35 1.8
2014-Nov-11 13:03N 29°55' W 089°57'0 0.0
2014-Nov-11 11:18N 29°55' W 089°57'0 0.0
2014-Nov-11 10:26N 29°55' W 089°57'0 0.0
2014-Nov-11 09:20N 29°55' W 089°57'  

Dump ship's entire track history